Time;durP1;ratioP1;P1;durP2;ratioP2;P2;SDS_P1;SDS_P2;PMS_P1;PMS_P2;Temp;Humidity;BMP_temperature;BMP_pressure;BME280_temperature;BME280_humidity;BME280_pressure;Samples;Min_cycle;Max_cycle;Signal;HPM_P1;HPM_P2
2021/10/29 09:10:46;;;;;;;8.70;4.83;;;;;;;8.53;93.18;98856.25;5108941;27;20567;-78
2021/10/29 09:32:58;;;;;;;6.07;4.40;;;;;;;11.22;75.38;98873.72;5066035;28;42297;-80
2021/10/29 09:35:27;;;;;;;10.17;5.67;;;;;;;11.26;74.25;98871.69;5064647;28;40885;-76
2021/10/29 09:38:00;;;;;;;7.13;5.10;;;;;;;11.22;73.92;98859.59;5064107;28;41674;-81
2021/10/29 09:40:59;;;;;;;8.33;4.83;;;;;;;11.39;74.02;98873.44;5064037;28;42910;-79
2021/10/29 09:43:32;;;;;;;8.47;5.70;;;;;;;11.39;71.73;98880.56;5064817;28;42221;-78
2021/10/29 09:46:02;;;;;;;6.83;3.83;;;;;;;11.38;71.85;98868.25;5066397;28;40889;-79
2021/10/29 09:48:38;;;;;;;9.60;5.20;;;;;;;11.45;71.78;98880.16;5064426;28;41349;-78
2021/10/29 09:51:09;;;;;;;6.83;4.47;;;;;;;11.45;71.68;98880.16;5065195;28;42861;-79
2021/10/29 09:53:43;;;;;;;6.53;4.83;;;;;;;11.31;71.70;98859.00;5080917;28;41259;-79
2021/10/29 09:56:14;;;;;;;7.23;4.90;;;;;;;11.30;71.34;98865.25;5047801;28;39013;-77
2021/10/29 09:58:44;;;;;;;6.63;4.07;;;;;;;11.39;71.40;98872.59;5065826;28;41826;-76
2021/10/29 10:01:12;;;;;;;8.50;5.10;;;;;;;11.40;71.04;98867.19;5063383;28;43745;-82
2021/10/29 10:03:41;;;;;;;7.80;4.10;;;;;;;11.37;70.91;98858.63;5064004;28;41171;-81
2021/10/29 10:06:09;;;;;;;7.10;4.23;;;;;;;11.46;69.99;98872.13;5047164;28;40549;-78
2021/10/29 10:08:39;;;;;;;6.40;4.27;;;;;;;11.46;69.41;98873.91;5047265;28;42190;-77
2021/10/29 10:11:09;;;;;;;8.93;4.80;;;;;;;11.42;69.18;98853.84;5063093;28;44102;-79
2021/10/29 10:13:39;;;;;;;7.17;4.30;;;;;;;11.51;69.59;98858.53;5065642;28;42843;-77
2021/10/29 10:16:09;;;;;;;7.43;4.47;;;;;;;11.56;69.56;98861.75;5047187;28;39324;-80
2021/10/29 10:18:37;;;;;;;6.30;4.23;;;;;;;11.56;68.82;98856.44;5065456;28;43343;-77
2021/10/29 10:21:10;;;;;;;6.13;4.00;;;;;;;11.50;68.52;98844.41;5070956;28;42712;-80
2021/10/29 10:23:42;;;;;;;8.13;4.57;;;;;;;11.60;68.28;98857.94;5051437;28;42625;-79
2021/10/29 10:29:27;;;;;;;11.13;4.70;;;;;;;11.69;68.31;98849.34;4997673;28;40786;-79
2021/10/29 10:40:38;;;;;;;10.77;5.33;;;;;;;11.77;66.47;98836.44;5050587;28;41922;-79
2021/10/29 10:43:23;;;;;;;6.97;4.33;;;;;;;11.86;67.08;98837.66;5050621;28;41504;-80
2021/10/29 10:46:07;;;;;;;7.33;4.33;;;;;;;11.98;67.16;98843.94;5083332;28;42169;-80
2021/10/29 10:48:45;;;;;;;6.87;4.30;;;;;;;12.15;66.91;98833.81;5029719;28;38511;-80
2021/10/29 10:51:43;;;;;;;4.80;3.53;;;;;;;12.38;66.72;98828.72;5030173;28;42325;-81
2021/10/29 10:54:16;;;;;;;7.47;5.00;;;;;;;12.57;66.25;98834.44;5013755;28;41318;-77
2021/10/29 10:59:51;;;;;;;5.57;4.50;;;;;;;12.56;64.71;98830.09;5038441;28;39977;-77
2021/10/29 11:02:52;;;;;;;7.17;4.30;;;;;;;12.61;64.83;98827.13;5049696;28;41706;-77
2021/10/29 11:11:12;;;;;;;5.53;4.53;;;;;;;12.86;63.69;98816.41;5040420;28;39557;-78
2021/10/29 11:13:56;;;;;;;4.40;3.50;;;;;;;13.01;63.57;98804.66;5052438;28;42053;-78
2021/10/29 11:16:42;;;;;;;4.20;3.73;;;;;;;13.11;63.11;98805.66;5091927;28;42888;-80
2021/10/29 11:19:14;;;;;;;4.77;3.87;;;;;;;13.21;62.81;98801.44;5045259;28;41752;-79
2021/10/29 11:21:51;;;;;;;5.73;4.03;;;;;;;13.20;62.59;98785.59;5049205;28;39100;-80
2021/10/29 11:24:29;;;;;;;5.47;4.03;;;;;;;13.29;62.12;98804.34;5050014;28;41745;-79
2021/10/29 11:27:05;;;;;;;5.17;4.17;;;;;;;13.27;61.41;98806.28;5033028;28;43193;-78
2021/10/29 11:29:33;;;;;;;4.90;4.00;;;;;;;13.26;61.38;98801.91;5031680;28;41488;-81
2021/10/29 11:32:03;;;;;;;5.27;4.53;;;;;;;13.35;61.83;98796.91;5032414;28;39397;-78
2021/10/29 11:34:31;;;;;;;5.70;4.00;;;;;;;13.49;60.07;98794.03;5048764;28;41046;-82
2021/10/29 11:37:00;;;;;;;7.13;4.73;;;;;;;13.64;60.19;98792.88;5049925;28;43815;-78
2021/10/29 11:39:28;;;;;;;5.47;3.87;;;;;;;13.65;60.42;98790.09;5050866;28;41433;-81
2021/10/29 11:41:56;;;;;;;6.93;4.23;;;;;;;13.82;59.91;98799.47;5046357;28;39259;-83
2021/10/29 11:44:26;;;;;;;5.30;4.23;;;;;;;13.90;60.24;98786.41;5047447;28;41894;-82
2021/10/29 11:46:56;;;;;;;5.27;4.50;;;;;;;13.93;59.79;98791.50;5048378;28;43694;-78
2021/10/29 11:49:27;;;;;;;6.77;4.43;;;;;;;13.93;59.78;98791.50;5047841;28;41205;-79
2021/10/29 11:51:57;;;;;;;6.37;4.33;;;;;;;14.00;59.92;98790.03;5048347;28;39959;-80
2021/10/29 11:54:30;;;;;;;6.33;4.30;;;;;;;14.11;60.23;98783.88;5030442;28;40563;-77
2021/10/29 11:57:21;;;;;;;6.83;4.27;;;;;;;14.10;58.77;98789.31;5032515;28;42482;-80
2021/10/29 12:05:55;;;;;;;7.23;4.50;;;;;;;14.01;58.96;98785.56;4989267;28;41716;-83
2021/10/29 12:08:26;;;;;;;8.93;5.30;;;;;;;14.01;59.52;98775.75;4971815;28;41938;-78
2021/10/29 12:11:01;;;;;;;5.83;4.30;;;;;;;13.99;59.56;98772.38;5006185;28;40780;-79
2021/10/29 12:13:29;;;;;;;7.57;4.83;;;;;;;13.92;59.47;98757.84;5047014;28;39806;-78
2021/10/29 12:15:58;;;;;;;6.87;5.10;;;;;;;13.97;58.43;98762.84;5044612;28;42702;-80
2021/10/29 12:18:32;;;;;;;7.00;4.50;;;;;;;13.97;58.99;98753.00;5030436;28;41982;-77
2021/10/29 12:20:59;;;;;;;7.10;4.73;;;;;;;14.05;58.96;98748.91;5031315;28;41407;-79
2021/10/29 12:23:29;;;;;;;7.30;4.83;;;;;;;14.07;58.50;98753.16;5030554;28;38870;-83
2021/10/29 12:26:02;;;;;;;6.43;4.73;;;;;;;14.13;59.20;98736.69;5046491;28;41772;-77
2021/10/29 12:28:34;;;;;;;6.73;4.57;;;;;;;14.26;59.31;98721.41;5042887;28;42591;-78
2021/10/29 12:31:10;;;;;;;5.67;4.20;;;;;;;14.41;58.67;98724.72;5046012;28;43161;-79
2021/10/29 12:37:00;;;;;;;6.10;5.07;;;;;;;14.97;57.67;98732.56;5019537;28;40488;-79
2021/10/29 12:54:08;;;;;;;6.23;4.33;;;;;;;15.05;56.35;98717.66;5028241;28;41440;-78
2021/10/29 13:01:25;;;;;;;7.10;4.47;;;;;;;15.42;55.23;98696.72;5044333;28;41805;-79
2021/10/29 13:02:23;;;;;;;6.77;5.20;;;;;;;15.65;54.64;98696.63;5046741;28;42342;-79
2021/10/29 13:04:54;;;;;;;7.37;5.07;;;;;;;15.67;54.99;98700.84;5045734;28;42312;-78
2021/10/29 13:07:26;;;;;;;6.87;5.30;;;;;;;15.62;54.88;98694.19;5047261;28;39969;-78
2021/10/29 13:10:05;;;;;;;7.97;5.40;;;;;;;15.55;54.92;98695.72;5029774;28;40590;-79
2021/10/29 13:12:41;;;;;;;7.93;5.50;;;;;;;15.49;55.21;98678.34;5030405;28;42325;-82
2021/10/29 13:15:13;;;;;;;7.20;4.80;;;;;;;15.59;54.75;98681.97;5029113;28;41194;-79
2021/10/29 13:17:50;;;;;;;7.40;5.33;;;;;;;15.50;55.12;98676.53;5046299;28;39857;-81
2021/10/29 13:20:39;;;;;;;6.40;4.73;;;;;;;15.61;55.36;98692.50;5029868;28;41203;-80
2021/10/29 13:26:17;;;;;;;6.30;4.67;;;;;;;15.79;54.97;98683.78;5044715;28;42324;-80
2021/10/29 13:28:47;;;;;;;5.37;4.13;;;;;;;15.87;54.91;98671.56;5017129;28;40214;-77
2021/10/29 13:34:38;;;;;;;7.70;5.27;;;;;;;16.15;54.87;98685.06;5029899;28;42979;-78
2021/10/29 13:37:15;;;;;;;5.70;4.87;;;;;;;16.09;53.93;98685.56;5045649;28;42110;-76
2021/10/29 13:50:56;;;;;;;6.07;5.03;;;;;;;17.34;51.69;98668.91;5043095;28;39765;-82
2021/10/29 13:56:15;;;;;;;5.00;4.50;;;;;;;17.58;50.87;98684.50;5031793;28;42824;-78
2021/10/29 14:29:09;;;;;;;5.07;4.13;;;;;;;15.40;55.14;98647.97;5039905;28;42557;-81
2021/10/29 14:31:43;;;;;;;5.23;4.17;;;;;;;15.35;55.36;98646.66;5050775;28;41062;-80
2021/10/29 14:34:13;;;;;;;5.73;3.83;;;;;;;15.37;55.59;98655.38;5032675;28;40352;-79
2021/10/29 14:36:49;;;;;;;8.17;5.20;;;;;;;15.32;55.95;98650.47;5020108;28;41748;-80
2021/10/29 14:39:23;;;;;;;7.63;5.17;;;;;;;15.27;56.61;98639.31;5046613;28;43660;-78
2021/10/29 14:41:59;;;;;;;5.43;4.20;;;;;;;15.10;55.86;98631.88;5033130;28;42379;-79
2021/10/29 14:44:33;;;;;;;7.10;4.57;;;;;;;15.07;55.93;98640.19;5048230;28;39182;-75
2021/10/29 14:49:58;;;;;;;7.17;5.70;;;;;;;14.91;56.57;98631.75;5034160;28;41691;-81
2021/10/29 15:03:58;;;;;;;7.93;5.67;;;;;;;14.46;57.51;98621.28;5032098;28;41436;-79
2021/10/29 15:06:36;;;;;;;9.50;5.87;;;;;;;14.22;57.64;98601.91;5043508;28;40889;-79
2021/10/29 15:17:27;;;;;;;6.67;4.70;;;;;;;13.88;58.62;98609.97;5035287;28;41501;-80
2021/10/29 15:25:36;;;;;;;10.73;6.20;;;;;;;13.38;60.09;98621.09;5022590;28;41910;-78
2021/10/29 15:28:21;;;;;;;7.37;5.03;;;;;;;13.15;60.12;98615.75;5049657;28;40001;-78
2021/10/29 15:30:55;;;;;;;6.50;4.47;;;;;;;12.99;60.51;98619.66;5048511;28;41805;-78
2021/10/29 15:33:44;;;;;;;8.03;5.23;;;;;;;12.83;60.84;98622.63;5048434;28;44041;-77
2021/10/29 15:41:47;;;;;;;8.50;5.60;;;;;;;12.30;62.23;98626.59;5032424;28;41911;-78
2021/10/29 15:44:20;;;;;;;10.23;6.10;;;;;;;12.12;62.34;98628.78;5031579;28;42721;-79
2021/10/29 15:46:55;;;;;;;8.13;5.00;;;;;;;11.96;62.77;98631.72;5033192;28;41502;-80
2021/10/29 15:49:37;;;;;;;10.93;5.50;;;;;;;11.82;63.15;98630.03;5030622;28;39286;-79
2021/10/29 15:52:12;;;;;;;8.53;5.10;;;;;;;11.39;63.37;98596.84;5032577;28;40835;-82
2021/10/29 15:54:45;;;;;;;6.10;4.17;;;;;;;11.52;63.72;98633.00;5047917;28;42103;-78
2021/10/29 15:57:15;;;;;;;7.60;5.50;;;;;;;11.38;63.67;98629.63;5032939;28;40971;-78
2021/10/29 15:59:49;;;;;;;12.87;7.50;;;;;;;11.13;64.10;98619.84;5038673;28;40079;-76
2021/10/29 16:18:57;;;;;;;9.77;6.10;;;;;;;10.21;66.32;98627.78;5030027;28;41443;-77
2021/10/29 16:21:25;;;;;;;10.63;5.70;;;;;;;10.10;66.33;98627.59;5047063;28;40982;-77
2021/10/29 16:23:52;;;;;;;8.80;5.87;;;;;;;9.99;66.20;98623.00;5047857;28;42408;-79
2021/10/29 16:26:22;;;;;;;9.53;5.53;;;;;;;9.89;66.49;98626.34;5047809;28;43771;-79
2021/10/29 16:28:51;;;;;;;13.10;7.50;;;;;;;9.66;66.76;98607.44;5032428;28;41322;-79
2021/10/29 16:31:21;;;;;;;12.70;7.53;;;;;;;9.69;67.16;98622.28;5064013;28;39234;-77
2021/10/29 16:33:49;;;;;;;11.57;7.83;;;;;;;9.55;67.48;98617.00;5031618;28;42279;-77
2021/10/29 16:36:17;;;;;;;11.93;7.37;;;;;;;9.48;68.22;98621.84;5047678;28;41101;-76
2021/10/29 16:38:44;;;;;;;10.60;6.37;;;;;;;9.36;68.92;98602.28;5048521;28;41968;-75
2021/10/29 16:41:12;;;;;;;11.70;7.20;;;;;;;9.18;69.66;98586.69;5031522;28;39772;-78
2021/10/29 16:43:40;;;;;;;10.33;6.53;;;;;;;9.21;70.73;98612.94;5047525;28;42690;-77
2021/10/29 16:46:08;;;;;;;10.37;6.40;;;;;;;9.03;70.30;98593.75;5047515;28;43540;-77
2021/10/29 16:48:37;;;;;;;16.27;8.43;;;;;;;9.02;70.30;98601.81;5030816;28;41510;-80
2021/10/29 16:51:04;;;;;;;14.13;7.50;;;;;;;8.97;70.64;98618.78;5031531;28;39205;-76
2021/10/29 16:53:32;;;;;;;12.53;7.00;;;;;;;8.89;70.50;98613.09;5029830;28;41753;-80
2021/10/29 16:55:59;;;;;;;12.07;7.10;;;;;;;8.83;70.83;98612.59;5028757;28;41611;-79
2021/10/29 16:58:27;;;;;;;10.80;7.03;;;;;;;8.76;70.75;98609.50;5030740;28;42050;-78
2021/10/29 17:00:54;;;;;;;12.77;6.97;;;;;;;8.69;70.89;98616.06;5030223;28;40227;-78
2021/10/29 17:03:24;;;;;;;13.13;7.20;;;;;;;8.62;71.02;98626.13;5063319;28;41361;-79
2021/10/29 17:05:55;;;;;;;11.50;6.87;;;;;;;8.56;71.19;98625.63;5030342;28;41885;-78
2021/10/29 17:08:22;;;;;;;13.80;7.37;;;;;;;8.40;71.28;98609.00;5030198;28;41317;-79
2021/10/29 17:10:50;;;;;;;10.37;6.53;;;;;;;8.32;71.82;98611.19;5046515;28;40453;-79
2021/10/29 17:13:17;;;;;;;12.63;6.97;;;;;;;8.39;72.43;98625.75;5048138;28;41832;-79
2021/10/29 17:15:45;;;;;;;11.87;6.90;;;;;;;8.31;72.14;98631.44;5044828;28;42667;-78
2021/10/29 17:18:13;;;;;;;13.17;6.67;;;;;;;8.27;72.11;98630.78;5046452;28;41189;-78
2021/10/29 17:20:41;;;;;;;11.73;6.17;;;;;;;8.12;72.09;98614.94;5046876;28;38840;-78
2021/10/29 17:23:10;;;;;;;13.30;7.47;;;;;;;8.03;72.73;98611.06;5047741;28;41197;-79
2021/10/29 17:25:37;;;;;;;13.77;7.20;;;;;;;8.11;72.22;98637.00;5045832;28;42544;-78
2021/10/29 17:28:05;;;;;;;10.87;6.67;;;;;;;8.05;72.04;98645.22;5046079;28;41965;-78
2021/10/29 17:30:37;;;;;;;9.30;6.50;;;;;;;7.99;71.67;98646.44;5047989;28;39896;-78
2021/10/29 17:33:05;;;;;;;10.77;6.27;;;;;;;7.82;71.82;98638.59;5049975;28;40504;-78
2021/10/29 17:35:33;;;;;;;9.73;5.47;;;;;;;7.86;71.91;98655.94;5035010;28;43100;-78
2021/10/29 17:38:00;;;;;;;11.93;6.80;;;;;;;7.80;72.01;98661.53;5050671;28;43257;-78
2021/10/29 17:40:29;;;;;;;8.97;5.67;;;;;;;7.75;72.05;98653.91;5050176;28;40864;-78
2021/10/29 17:42:57;;;;;;;14.30;8.63;;;;;;;7.60;71.99;98638.06;5048667;28;42455;-78
2021/10/29 17:45:24;;;;;;;13.60;7.77;;;;;;;7.64;72.11;98655.41;5050851;28;42714;-79
2021/10/29 17:47:52;;;;;;;17.23;9.50;;;;;;;7.53;72.30;98643.69;5049256;28;42603;-79
2021/10/29 17:50:19;;;;;;;12.63;6.80;;;;;;;7.54;72.63;98657.69;5050510;28;40069;-79
2021/10/29 17:52:47;;;;;;;16.20;8.27;;;;;;;7.50;72.69;98661.41;5051429;28;40778;-80
2021/10/29 17:55:15;;;;;;;18.13;8.43;;;;;;;7.45;72.90;98655.53;5050389;28;42758;-78
2021/10/29 17:57:45;;;;;;;12.17;6.83;;;;;;;7.40;72.63;98658.44;5035398;28;41456;-78
2021/10/29 18:00:14;;;;;;;11.37;7.27;;;;;;;7.37;72.90;98660.38;5051573;28;40237;-79
2021/10/29 18:02:42;;;;;;;17.87;9.77;;;;;;;7.31;72.66;98664.16;5034625;28;40893;-78
2021/10/29 18:05:10;;;;;;;10.40;6.43;;;;;;;7.17;72.84;98645.63;5033480;28;42822;-78
2021/10/29 18:07:39;;;;;;;12.33;6.97;;;;;;;7.23;73.29;98661.09;5034112;28;40948;-79
2021/10/29 18:10:08;;;;;;;12.77;6.73;;;;;;;7.05;73.24;98636.53;5033526;28;38841;-78
2021/10/29 18:12:35;;;;;;;17.90;9.67;;;;;;;7.02;73.40;98634.09;5031123;28;41787;-81
2021/10/29 18:15:06;;;;;;;11.70;7.03;;;;;;;7.07;73.69;98644.38;5029064;28;43948;-77
2021/10/29 18:17:33;;;;;;;13.70;8.40;;;;;;;7.03;73.43;98640.22;5030522;28;43406;-77
2021/10/29 18:20:01;;;;;;;15.83;9.23;;;;;;;7.00;73.66;98635.09;5018874;28;38817;-77
2021/10/29 18:22:28;;;;;;;12.77;7.07;;;;;;;6.95;73.65;98632.69;5065380;28;40293;-78
2021/10/29 18:24:56;;;;;;;16.33;8.30;;;;;;;6.91;73.89;98635.56;5047848;28;41712;-76
2021/10/29 18:27:26;;;;;;;15.03;7.20;;;;;;;6.87;73.63;98636.66;5049833;28;41320;-77
2021/10/29 18:29:56;;;;;;;11.43;7.23;;;;;;;6.81;74.62;98622.84;5048826;28;38600;-76
2021/10/29 18:32:25;;;;;;;14.17;9.00;;;;;;;6.77;74.50;98637.13;5083120;28;42419;-76
2021/10/29 18:34:54;;;;;;;17.30;8.10;;;;;;;6.75;74.79;98638.97;5051338;28;42895;-76
2021/10/29 18:37:22;;;;;;;18.57;8.80;;;;;;;6.72;76.39;98628.59;5049564;28;41165;-76
2021/10/29 18:39:51;;;;;;;16.73;8.57;;;;;;;6.70;77.42;98619.06;5049873;28;38984;-77
2021/10/29 18:42:21;;;;;;;16.77;8.97;;;;;;;6.86;78.04;98646.31;5049156;28;40552;-76
2021/10/29 18:44:48;;;;;;;15.03;7.60;;;;;;;6.98;77.89;98650.13;5083462;28;43724;-76
2021/10/29 18:47:16;;;;;;;12.73;7.73;;;;;;;7.08;77.42;98635.53;5032043;28;42383;-78
2021/10/29 18:49:46;;;;;;;10.53;6.97;;;;;;;7.17;77.40;98648.25;5049557;28;41014;-78
2021/10/29 18:52:13;;;;;;;13.30;7.00;;;;;;;7.22;78.33;98640.94;5049467;28;42039;-78
2021/10/29 18:54:41;;;;;;;10.37;6.10;;;;;;;7.20;77.98;98634.91;5065953;28;41659;-77
2021/10/29 18:57:08;;;;;;;13.73;6.90;;;;;;;7.26;77.96;98642.50;5065488;28;42655;-77
2021/10/29 18:59:38;;;;;;;12.33;6.63;;;;;;;7.41;77.72;98644.31;5048579;28;39951;-77
2021/10/29 19:02:06;;;;;;;11.37;6.50;;;;;;;7.50;77.35;98648.25;5083518;28;41728;-77
2021/10/29 19:04:34;;;;;;;11.40;7.07;;;;;;;7.56;77.16;98637.38;5031866;28;42180;-77
2021/10/29 19:07:04;;;;;;;9.77;6.23;;;;;;;7.65;77.28;98641.31;5049419;28;42832;-77
2021/10/29 19:09:33;;;;;;;11.80;6.97;;;;;;;7.72;76.68;98637.41;5050269;28;39791;-76
2021/10/29 19:12:02;;;;;;;10.17;6.53;;;;;;;7.79;76.58;98633.50;5065550;28;40774;-76
2021/10/29 19:14:30;;;;;;;15.53;9.20;;;;;;;7.82;77.35;98643.84;5049907;28;42656;-76
2021/10/29 19:16:57;;;;;;;15.40;7.60;;;;;;;7.55;76.81;98585.59;5031476;28;41181;-75
2021/10/29 19:19:25;;;;;;;14.13;7.93;;;;;;;7.94;76.63;98651.09;5032694;28;38726;-77
2021/10/29 19:21:53;;;;;;;10.27;7.47;;;;;;;7.94;76.40;98638.75;5033286;28;41760;-76
2021/10/29 19:24:22;;;;;;;10.57;6.53;;;;;;;8.03;76.18;98652.41;5032380;28;41761;-76
2021/10/29 19:26:50;;;;;;;13.83;7.60;;;;;;;8.07;76.47;98638.94;5049362;28;41372;-76
2021/10/29 19:29:18;;;;;;;14.23;8.30;;;;;;;8.08;77.24;98630.09;5065296;28;40279;-76
2021/10/29 19:31:46;;;;;;;12.23;7.20;;;;;;;8.11;76.77;98634.34;5049471;28;41307;-77
2021/10/29 19:34:15;;;;;;;9.40;6.87;;;;;;;8.01;76.82;98618.19;5032274;28;42813;-76
2021/10/29 19:36:48;;;;;;;12.40;7.93;;;;;;;8.01;77.73;98607.66;5048613;28;42380;-77
2021/10/29 19:39:34;;;;;;;13.83;7.50;;;;;;;7.96;77.73;98619.38;5032790;28;40306;-77
2021/10/29 19:42:06;;;;;;;10.23;6.60;;;;;;;8.08;77.26;98635.38;5049332;28;40782;-76
2021/10/29 19:44:34;;;;;;;12.43;7.43;;;;;;;8.12;77.54;98660.63;5032730;28;43101;-76
2021/10/29 19:47:02;;;;;;;12.13;6.07;;;;;;;8.10;76.98;98657.22;5048665;28;43694;-77
2021/10/29 19:49:29;;;;;;;11.90;7.03;;;;;;;8.10;77.06;98646.69;5032083;28;39111;-75
2021/10/29 19:51:58;;;;;;;10.50;6.83;;;;;;;8.21;77.18;98660.13;5047959;28;41721;-79
2021/10/29 19:54:30;;;;;;;13.83;6.97;;;;;;;8.12;77.10;98638.69;5043218;28;43152;-82
2021/10/29 19:57:07;;;;;;;9.93;6.50;;;;;;;8.25;76.93;98656.38;5032183;28;41462;-77
2021/10/29 19:59:36;;;;;;;9.17;5.80;;;;;;;8.26;76.85;98655.44;5064723;28;38975;-77
2021/10/29 20:02:04;;;;;;;11.70;7.67;;;;;;;8.29;76.59;98644.69;5048829;28;41543;-79
2021/10/29 20:04:32;;;;;;;11.47;6.87;;;;;;;8.22;76.57;98643.34;5011473;28;42830;-76
2021/10/29 20:06:59;;;;;;;11.00;7.17;;;;;;;8.29;76.74;98655.25;5035152;28;42604;-76
2021/10/29 20:09:27;;;;;;;16.23;9.37;;;;;;;8.19;76.99;98637.41;5046494;28;39489;-76
2021/10/29 20:11:55;;;;;;;11.93;6.27;;;;;;;8.18;76.95;98631.25;5029595;28;40980;-77
2021/10/29 20:14:24;;;;;;;14.47;7.63;;;;;;;8.29;76.98;98652.63;5031357;28;41472;-76
2021/10/29 20:16:53;;;;;;;9.03;6.50;;;;;;;8.27;76.81;98657.16;5046846;28;42865;-77
2021/10/29 20:19:21;;;;;;;12.27;6.57;;;;;;;8.29;76.88;98649.97;5031527;28;39972;-76
2021/10/29 20:21:48;;;;;;;11.27;7.40;;;;;;;8.28;76.70;98652.72;5048238;28;42101;-76
2021/10/29 20:24:16;;;;;;;14.13;8.23;;;;;;;8.32;76.71;98658.69;5030953;28;41826;-76
2021/10/29 20:26:45;;;;;;;13.43;7.03;;;;;;;8.26;76.77;98647.53;5049025;28;40905;-76
2021/10/29 20:29:13;;;;;;;9.87;7.00;;;;;;;8.38;76.81;98663.63;5048162;28;38947;-76
2021/10/29 20:31:41;;;;;;;13.67;6.87;;;;;;;8.28;76.47;98640.34;5047700;28;41818;-76
2021/10/29 20:34:11;;;;;;;11.23;5.70;;;;;;;8.39;76.46;98660.06;5031342;28;41499;-76
2021/10/29 20:36:38;;;;;;;13.17;7.80;;;;;;;8.27;76.68;98636.03;5032221;28;41123;-76
2021/10/29 20:39:08;;;;;;;14.60;8.23;;;;;;;8.42;76.82;98665.16;5048241;28;40005;-75
2021/10/29 20:41:38;;;;;;;11.53;7.00;;;;;;;8.22;76.87;98640.72;5030682;28;40607;-76
2021/10/29 20:44:06;;;;;;;14.03;7.20;;;;;;;8.41;76.85;98669.56;5047758;28;43014;-76
2021/10/29 20:46:35;;;;;;;12.07;6.40;;;;;;;8.30;76.71;98653.47;5048778;28;42226;-77
2021/10/29 20:49:03;;;;;;;12.70;7.23;;;;;;;8.37;76.68;98677.75;5031331;28;38762;-78
2021/10/29 20:51:33;;;;;;;15.00;7.33;;;;;;;8.31;76.87;98665.72;5046281;28;42244;-77
2021/10/29 20:54:01;;;;;;;10.03;6.07;;;;;;;8.37;76.99;98675.13;5031300;28;41821;-77
2021/10/29 20:56:28;;;;;;;9.60;5.67;;;;;;;8.38;76.76;98669.75;5049097;28;43228;-77
2021/10/29 20:58:56;;;;;;;9.37;6.23;;;;;;;8.37;76.88;98661.94;5048760;28;40556;-77
2021/10/29 21:01:24;;;;;;;11.20;6.47;;;;;;;8.38;77.23;98664.50;5046084;28;40689;-76
2021/10/29 21:03:53;;;;;;;14.33;7.33;;;;;;;8.38;76.68;98664.50;5030095;28;42011;-77
2021/10/29 21:06:24;;;;;;;9.10;6.03;;;;;;;8.34;76.95;98656.81;5045436;28;43311;-78
2021/10/29 21:08:53;;;;;;;10.83;6.30;;;;;;;8.40;77.07;98669.69;5044869;28;40066;-78
2021/10/29 21:11:21;;;;;;;15.17;7.93;;;;;;;8.38;77.17;98663.63;5044378;28;41853;-77
2021/10/29 21:13:50;;;;;;;11.77;7.30;;;;;;;8.36;77.75;98660.22;5028360;28;42001;-76
2021/10/29 21:16:17;;;;;;;13.00;6.80;;;;;;;8.39;77.29;98660.06;5039981;28;42391;-76
2021/10/29 21:18:46;;;;;;;10.70;6.97;;;;;;;8.41;77.34;98648.47;5009609;28;39081;-76
2021/10/29 21:21:13;;;;;;;11.07;6.70;;;;;;;8.45;76.93;98650.00;5032028;28;42200;-77
2021/10/29 21:23:41;;;;;;;8.43;5.83;;;;;;;8.50;77.09;98662.94;5045395;28;41762;-77
2021/10/29 21:26:10;;;;;;;10.27;6.47;;;;;;;8.49;76.96;98655.97;5028851;28;42113;-78
2021/10/29 21:28:38;;;;;;;9.70;7.07;;;;;;;8.45;77.04;98649.16;5029462;28;39949;-78
2021/10/29 21:31:06;;;;;;;13.83;7.37;;;;;;;8.41;76.93;98643.19;5047178;28;42411;-77
2021/10/29 21:33:33;;;;;;;12.83;7.13;;;;;;;8.54;77.25;98664.44;5045867;28;42800;-77
2021/10/29 21:36:01;;;;;;;13.63;7.43;;;;;;;8.58;77.13;98665.97;5048091;28;43428;-77
2021/10/29 21:38:28;;;;;;;14.90;8.13;;;;;;;8.59;77.29;98668.53;5046963;28;40713;-76
2021/10/29 21:40:56;;;;;;;12.63;7.13;;;;;;;8.62;77.08;98678.06;5047410;28;41649;-77
2021/10/29 21:43:25;;;;;;;13.47;7.13;;;;;;;8.66;77.21;98679.56;5047276;28;42710;-77
2021/10/29 21:45:52;;;;;;;13.60;8.03;;;;;;;8.67;76.99;98686.56;5047727;28;42065;-76
2021/10/29 21:48:20;;;;;;;16.77;8.13;;;;;;;8.68;77.00;98688.25;5047174;28;40875;-77
2021/10/29 21:50:47;;;;;;;12.57;7.60;;;;;;;8.67;77.02;98681.28;5048226;28;41923;-77
2021/10/29 21:53:15;;;;;;;13.60;9.13;;;;;;;8.64;77.24;98676.19;5048003;28;43749;-76
2021/10/29 21:55:43;;;;;;;15.17;7.97;;;;;;;8.65;76.98;98684.00;5050558;28;42364;-77
2021/10/29 21:58:11;;;;;;;12.83;8.17;;;;;;;8.67;77.04;98670.72;5046219;28;40392;-77
2021/10/29 22:00:48;;;;;;;15.03;8.77;;;;;;;8.69;77.24;98683.84;5048324;28;42448;-77
2021/10/29 22:03:17;;;;;;;15.47;7.87;;;;;;;8.69;77.15;98683.84;5053240;28;41944;-77
2021/10/29 22:05:45;;;;;;;12.53;6.47;;;;;;;8.71;76.71;98676.69;5047439;28;42251;-78
2021/10/29 22:08:13;;;;;;;10.03;6.07;;;;;;;8.53;76.50;98646.94;5047415;28;40189;-77
2021/10/29 22:10:42;;;;;;;18.27;8.97;;;;;;;8.74;76.60;98666.81;5031258;28;42151;-76
2021/10/29 22:13:09;;;;;;;12.87;7.23;;;;;;;8.74;76.69;98665.94;5048057;28;43692;-76
2021/10/29 22:15:37;;;;;;;14.50;8.23;;;;;;;8.74;76.74;98677.38;5048059;28;42564;-76
2021/10/29 22:18:07;;;;;;;14.27;8.47;;;;;;;8.74;76.66;98682.66;5050450;28;40724;-77
2021/10/29 22:20:36;;;;;;;15.70;8.03;;;;;;;8.71;76.43;98672.25;5051617;28;42618;-77
2021/10/29 22:23:04;;;;;;;11.53;6.93;;;;;;;8.68;76.50;98653.94;5034412;28;42064;-77
2021/10/29 22:25:31;;;;;;;13.43;7.73;;;;;;;8.74;76.36;98674.72;5037051;28;42381;-76
2021/10/29 22:27:59;;;;;;;12.33;7.50;;;;;;;8.74;76.42;98661.53;5047105;28;40301;-76
2021/10/29 22:30:26;;;;;;;14.20;6.20;;;;;;;8.75;76.27;98660.59;5013876;28;40686;-76
2021/10/29 22:32:54;;;;;;;12.60;6.93;;;;;;;8.77;76.30;98661.34;5066427;28;42797;-77
2021/10/29 22:35:26;;;;;;;13.80;7.70;;;;;;;8.43;76.47;98598.25;5051866;28;42171;-76
2021/10/29 22:37:53;;;;;;;14.73;7.30;;;;;;;8.78;76.37;98657.75;5034426;28;38962;-77
